sensor_id;sensor_type;location;lat;lon;timestamp;temperature;humidity
58582;DHT22;44361;51.476;5.700;2022-07-04T00:00:21;13.70;99.90
58582;DHT22;44361;51.476;5.700;2022-07-04T00:02:48;13.60;99.90
58582;DHT22;44361;51.476;5.700;2022-07-04T00:05:14;13.60;99.90
58582;DHT22;44361;51.476;5.700;2022-07-04T00:07:41;13.60;99.90
58582;DHT22;44361;51.476;5.700;2022-07-04T00:10:08;13.50;99.90
58582;DHT22;44361;51.476;5.700;2022-07-04T00:12:34;13.50;99.90
58582;DHT22;44361;51.476;5.700;2022-07-04T00:15:01;13.50;99.90
58582;DHT22;44361;51.476;5.700;2022-07-04T00:17:27;13.40;99.90
58582;DHT22;44361;51.476;5.700;2022-07-04T00:19:52;13.30;99.90
58582;DHT22;44361;51.476;5.700;2022-07-04T00:22:18;13.30;99.90
58582;DHT22;44361;51.476;5.700;2022-07-04T00:24:44;13.20;99.90
58582;DHT22;44361;51.476;5.700;2022-07-04T00:27:09;13.30;99.90
58582;DHT22;44361;51.476;5.700;2022-07-04T00:29:35;13.20;99.90
58582;DHT22;44361;51.476;5.700;2022-07-04T00:32:00;13.10;99.90
58582;DHT22;44361;51.476;5.700;2022-07-04T00:34:26;13.20;99.90
58582;DHT22;44361;51.476;5.700;2022-07-04T00:36:52;13.10;99.90
58582;DHT22;44361;51.476;5.700;2022-07-04T00:39:18;13.00;99.90
58582;DHT22;44361;51.476;5.700;2022-07-04T00:41:44;13.10;99.90
58582;DHT22;44361;51.476;5.700;2022-07-04T00:44:11;13.00;99.90
58582;DHT22;44361;51.476;5.700;2022-07-04T00:46:37;13.00;99.90
58582;DHT22;44361;51.476;5.700;2022-07-04T00:49:03;13.00;99.90
58582;DHT22;44361;51.476;5.700;2022-07-04T00:51:30;13.00;99.90
58582;DHT22;44361;51.476;5.700;2022-07-04T00:53:56;13.00;99.90
58582;DHT22;44361;51.476;5.700;2022-07-04T00:56:23;13.00;99.90
58582;DHT22;44361;51.476;5.700;2022-07-04T00:58:50;12.90;99.90
58582;DHT22;44361;51.476;5.700;2022-07-04T01:01:17;12.80;99.90
58582;DHT22;44361;51.476;5.700;2022-07-04T01:03:43;12.80;99.90
58582;DHT22;44361;51.476;5.700;2022-07-04T01:06:09;12.80;99.90
58582;DHT22;44361;51.476;5.700;2022-07-04T01:08:37;12.70;99.90
58582;DHT22;44361;51.476;5.700;2022-07-04T01:11:03;12.70;99.90
58582;DHT22;44361;51.476;5.700;2022-07-04T01:13:28;12.70;99.90
58582;DHT22;44361;51.476;5.700;2022-07-04T01:15:54;12.60;99.90
58582;DHT22;44361;51.476;5.700;2022-07-04T01:18:20;12.60;99.90
58582;DHT22;44361;51.476;5.700;2022-07-04T01:20:46;12.60;99.90
58582;DHT22;44361;51.476;5.700;2022-07-04T01:23:12;12.60;99.90
58582;DHT22;44361;51.476;5.700;2022-07-04T01:25:37;12.50;99.90
58582;DHT22;44361;51.476;5.700;2022-07-04T01:28:03;12.50;99.90
58582;DHT22;44361;51.476;5.700;2022-07-04T01:30:30;12.50;99.90
58582;DHT22;44361;51.476;5.700;2022-07-04T01:32:56;12.40;99.90
58582;DHT22;44361;51.476;5.700;2022-07-04T01:35:22;12.40;99.90
58582;DHT22;44361;51.476;5.700;2022-07-04T01:37:51;12.30;99.90
58582;DHT22;44361;51.476;5.700;2022-07-04T01:40:17;12.30;99.90
58582;DHT22;44361;51.476;5.700;2022-07-04T01:42:42;12.20;99.90
58582;DHT22;44361;51.476;5.700;2022-07-04T01:45:10;12.20;99.90
58582;DHT22;44361;51.476;5.700;2022-07-04T01:47:36;12.20;99.90
58582;DHT22;44361;51.476;5.700;2022-07-04T01:50:03;12.20;99.90
58582;DHT22;44361;51.476;5.700;2022-07-04T01:52:29;12.20;99.90
58582;DHT22;44361;51.476;5.700;2022-07-04T01:54:55;12.20;99.90
58582;DHT22;44361;51.476;5.700;2022-07-04T01:57:21;12.10;99.90
58582;DHT22;44361;51.476;5.700;2022-07-04T01:59:46;12.10;99.90
58582;DHT22;44361;51.476;5.700;2022-07-04T02:02:30;12.10;99.90
58582;DHT22;44361;51.476;5.700;2022-07-04T02:04:56;12.00;99.90
58582;DHT22;44361;51.476;5.700;2022-07-04T02:07:22;12.10;99.90
58582;DHT22;44361;51.476;5.700;2022-07-04T02:09:47;12.00;99.90
58582;DHT22;44361;51.476;5.700;2022-07-04T02:12:13;11.90;99.90
58582;DHT22;44361;51.476;5.700;2022-07-04T02:14:57;11.90;99.90
58582;DHT22;44361;51.476;5.700;2022-07-04T02:17:23;11.90;99.90
58582;DHT22;44361;51.476;5.700;2022-07-04T02:19:49;11.90;99.90
58582;DHT22;44361;51.476;5.700;2022-07-04T02:22:15;11.80;99.90
58582;DHT22;44361;51.476;5.700;2022-07-04T02:24:41;11.90;99.90
58582;DHT22;44361;51.476;5.700;2022-07-04T02:27:07;11.80;99.90
58582;DHT22;44361;51.476;5.700;2022-07-04T02:29:33;11.80;99.90
58582;DHT22;44361;51.476;5.700;2022-07-04T02:31:59;11.80;99.90
58582;DHT22;44361;51.476;5.700;2022-07-04T02:34:25;11.80;99.90
58582;DHT22;44361;51.476;5.700;2022-07-04T02:36:50;11.70;99.90
58582;DHT22;44361;51.476;5.700;2022-07-04T02:39:16;11.70;99.90
58582;DHT22;44361;51.476;5.700;2022-07-04T02:41:42;11.70;99.90
58582;DHT22;44361;51.476;5.700;2022-07-04T02:44:08;11.70;99.90
58582;DHT22;44361;51.476;5.700;2022-07-04T02:46:33;11.70;99.90
58582;DHT22;44361;51.476;5.700;2022-07-04T02:49:00;11.70;99.90
58582;DHT22;44361;51.476;5.700;2022-07-04T02:51:26;11.70;99.90
58582;DHT22;44361;51.476;5.700;2022-07-04T02:53:52;11.60;99.90
58582;DHT22;44361;51.476;5.700;2022-07-04T02:56:17;11.60;99.90
58582;DHT22;44361;51.476;5.700;2022-07-04T02:58:43;11.60;99.90
58582;DHT22;44361;51.476;5.700;2022-07-04T03:01:09;11.50;99.90
58582;DHT22;44361;51.476;5.700;2022-07-04T03:03:35;11.50;99.90
58582;DHT22;44361;51.476;5.700;2022-07-04T03:06:01;11.50;99.90
58582;DHT22;44361;51.476;5.700;2022-07-04T03:08:27;11.50;99.90
58582;DHT22;44361;51.476;5.700;2022-07-04T03:10:53;11.40;99.90
58582;DHT22;44361;51.476;5.700;2022-07-04T03:13:19;11.40;99.90
58582;DHT22;44361;51.476;5.700;2022-07-04T03:15:45;11.40;99.90
58582;DHT22;44361;51.476;5.700;2022-07-04T03:18:11;11.40;99.90
58582;DHT22;44361;51.476;5.700;2022-07-04T03:20:37;11.30;99.90
58582;DHT22;44361;51.476;5.700;2022-07-04T03:23:03;11.40;99.90
58582;DHT22;44361;51.476;5.700;2022-07-04T03:25:28;11.40;99.90
58582;DHT22;44361;51.476;5.700;2022-07-04T03:27:54;11.40;99.90
58582;DHT22;44361;51.476;5.700;2022-07-04T03:30:20;11.40;99.90
58582;DHT22;44361;51.476;5.700;2022-07-04T03:32:46;11.30;99.90
58582;DHT22;44361;51.476;5.700;2022-07-04T03:35:11;11.40;99.90
58582;DHT22;44361;51.476;5.700;2022-07-04T03:37:37;11.30;99.90
58582;DHT22;44361;51.476;5.700;2022-07-04T03:40:03;11.40;99.90
58582;DHT22;44361;51.476;5.700;2022-07-04T03:42:29;11.50;99.90
58582;DHT22;44361;51.476;5.700;2022-07-04T03:44:55;11.50;99.90
58582;DHT22;44361;51.476;5.700;2022-07-04T03:47:20;11.50;99.90
58582;DHT22;44361;51.476;5.700;2022-07-04T03:49:46;11.50;99.90
58582;DHT22;44361;51.476;5.700;2022-07-04T03:52:11;11.50;99.90
58582;DHT22;44361;51.476;5.700;2022-07-04T03:54:37;11.50;99.90
58582;DHT22;44361;51.476;5.700;2022-07-04T03:57:03;11.50;99.90
58582;DHT22;44361;51.476;5.700;2022-07-04T03:59:28;11.50;99.90
58582;DHT22;44361;51.476;5.700;2022-07-04T04:01:54;11.60;99.90
58582;DHT22;44361;51.476;5.700;2022-07-04T04:04:20;11.60;99.90
58582;DHT22;44361;51.476;5.700;2022-07-04T04:07:04;11.70;99.90
58582;DHT22;44361;51.476;5.700;2022-07-04T04:09:29;11.70;99.90
58582;DHT22;44361;51.476;5.700;2022-07-04T04:11:55;11.80;99.90
58582;DHT22;44361;51.476;5.700;2022-07-04T04:14:20;11.80;99.90
58582;DHT22;44361;51.476;5.700;2022-07-04T04:16:46;11.90;99.90
58582;DHT22;44361;51.476;5.700;2022-07-04T04:19:12;12.00;99.90
58582;DHT22;44361;51.476;5.700;2022-07-04T04:21:37;12.10;99.90
58582;DHT22;44361;51.476;5.700;2022-07-04T04:24:04;12.10;99.90
58582;DHT22;44361;51.476;5.700;2022-07-04T04:26:30;12.20;99.90
58582;DHT22;44361;51.476;5.700;2022-07-04T04:28:56;12.30;99.90
58582;DHT22;44361;51.476;5.700;2022-07-04T04:31:22;12.30;99.90
58582;DHT22;44361;51.476;5.700;2022-07-04T04:33:47;12.40;99.90
58582;DHT22;44361;51.476;5.700;2022-07-04T04:36:13;12.40;99.90
58582;DHT22;44361;51.476;5.700;2022-07-04T04:38:39;12.50;99.90
58582;DHT22;44361;51.476;5.700;2022-07-04T04:41:04;12.60;99.90
58582;DHT22;44361;51.476;5.700;2022-07-04T04:43:30;12.70;99.90
58582;DHT22;44361;51.476;5.700;2022-07-04T04:45:55;12.80;99.90
58582;DHT22;44361;51.476;5.700;2022-07-04T04:48:21;12.90;99.90
58582;DHT22;44361;51.476;5.700;2022-07-04T04:50:47;13.00;99.90
58582;DHT22;44361;51.476;5.700;2022-07-04T04:53:12;13.00;99.90
58582;DHT22;44361;51.476;5.700;2022-07-04T04:55:39;13.10;99.90
58582;DHT22;44361;51.476;5.700;2022-07-04T04:58:05;13.30;99.90
58582;DHT22;44361;51.476;5.700;2022-07-04T05:00:31;13.40;99.90
58582;DHT22;44361;51.476;5.700;2022-07-04T05:02:56;13.50;99.90
58582;DHT22;44361;51.476;5.700;2022-07-04T05:05:22;13.80;99.90
58582;DHT22;44361;51.476;5.700;2022-07-04T05:07:48;14.30;99.90
58582;DHT22;44361;51.476;5.700;2022-07-04T05:10:14;15.40;99.90
58582;DHT22;44361;51.476;5.700;2022-07-04T05:12:41;16.40;99.90
58582;DHT22;44361;51.476;5.700;2022-07-04T05:15:07;17.10;99.90
58582;DHT22;44361;51.476;5.700;2022-07-04T05:17:33;17.50;99.90
58582;DHT22;44361;51.476;5.700;2022-07-04T05:19:59;18.00;99.90
58582;DHT22;44361;51.476;5.700;2022-07-04T05:22:24;18.50;99.90
58582;DHT22;44361;51.476;5.700;2022-07-04T05:24:50;19.00;99.90
58582;DHT22;44361;51.476;5.700;2022-07-04T05:27:15;19.30;99.90
58582;DHT22;44361;51.476;5.700;2022-07-04T05:29:41;19.20;99.90
58582;DHT22;44361;51.476;5.700;2022-07-04T05:32:07;19.80;98.90
58582;DHT22;44361;51.476;5.700;2022-07-04T05:34:33;19.70;98.90
58582;DHT22;44361;51.476;5.700;2022-07-04T05:36:58;19.60;97.50
58582;DHT22;44361;51.476;5.700;2022-07-04T05:39:24;19.50;98.30
58582;DHT22;44361;51.476;5.700;2022-07-04T05:41:49;19.40;98.10
58582;DHT22;44361;51.476;5.700;2022-07-04T05:44:15;19.60;99.00
58582;DHT22;44361;51.476;5.700;2022-07-04T05:46:40;19.80;98.60
58582;DHT22;44361;51.476;5.700;2022-07-04T05:49:06;20.00;99.10
58582;DHT22;44361;51.476;5.700;2022-07-04T05:51:31;20.50;98.00
58582;DHT22;44361;51.476;5.700;2022-07-04T05:53:57;20.80;97.30
58582;DHT22;44361;51.476;5.700;2022-07-04T05:56:22;21.40;97.30
58582;DHT22;44361;51.476;5.700;2022-07-04T05:58:48;21.10;97.00
58582;DHT22;44361;51.476;5.700;2022-07-04T06:01:14;21.30;96.60
58582;DHT22;44361;51.476;5.700;2022-07-04T06:03:39;21.50;96.40
58582;DHT22;44361;51.476;5.700;2022-07-04T06:06:06;21.60;95.70
58582;DHT22;44361;51.476;5.700;2022-07-04T06:08:31;21.60;96.10
58582;DHT22;44361;51.476;5.700;2022-07-04T06:10:57;21.40;95.00
58582;DHT22;44361;51.476;5.700;2022-07-04T06:13:24;21.50;96.20
58582;DHT22;44361;51.476;5.700;2022-07-04T06:15:49;21.40;95.90
58582;DHT22;44361;51.476;5.700;2022-07-04T06:18:15;21.40;95.50
58582;DHT22;44361;51.476;5.700;2022-07-04T06:20:41;21.60;96.70
58582;DHT22;44361;51.476;5.700;2022-07-04T06:23:07;21.90;94.80
58582;DHT22;44361;51.476;5.700;2022-07-04T06:25:33;21.90;95.90
58582;DHT22;44361;51.476;5.700;2022-07-04T06:27:59;21.80;94.90
58582;DHT22;44361;51.476;5.700;2022-07-04T06:30:25;21.80;95.20
58582;DHT22;44361;51.476;5.700;2022-07-04T06:32:54;21.70;95.30
58582;DHT22;44361;51.476;5.700;2022-07-04T06:35:24;21.50;96.20
58582;DHT22;44361;51.476;5.700;2022-07-04T06:38:09;21.40;97.00
58582;DHT22;44361;51.476;5.700;2022-07-04T06:40:36;21.40;96.50
58582;DHT22;44361;51.476;5.700;2022-07-04T06:43:02;21.90;96.40
58582;DHT22;44361;51.476;5.700;2022-07-04T06:45:28;21.80;95.60
58582;DHT22;44361;51.476;5.700;2022-07-04T06:47:54;21.80;95.20
58582;DHT22;44361;51.476;5.700;2022-07-04T06:50:20;21.60;96.10
58582;DHT22;44361;51.476;5.700;2022-07-04T06:52:45;21.50;95.30
58582;DHT22;44361;51.476;5.700;2022-07-04T06:55:11;21.30;95.50
58582;DHT22;44361;51.476;5.700;2022-07-04T06:57:37;21.50;95.90
58582;DHT22;44361;51.476;5.700;2022-07-04T07:00:07;21.40;96.10
58582;DHT22;44361;51.476;5.700;2022-07-04T07:02:37;21.40;96.40
58582;DHT22;44361;51.476;5.700;2022-07-04T07:05:03;21.50;96.00
58582;DHT22;44361;51.476;5.700;2022-07-04T07:07:29;21.60;96.00
58582;DHT22;44361;51.476;5.700;2022-07-04T07:09:55;21.70;95.00
58582;DHT22;44361;51.476;5.700;2022-07-04T07:12:21;22.10;94.90
58582;DHT22;44361;51.476;5.700;2022-07-04T07:14:48;22.00;94.90
58582;DHT22;44361;51.476;5.700;2022-07-04T07:17:14;22.10;93.60
58582;DHT22;44361;51.476;5.700;2022-07-04T07:19:41;21.90;94.70
58582;DHT22;44361;51.476;5.700;2022-07-04T07:22:08;21.90;94.50
58582;DHT22;44361;51.476;5.700;2022-07-04T07:24:34;21.90;94.00
58582;DHT22;44361;51.476;5.700;2022-07-04T07:27:04;21.80;93.60
58582;DHT22;44361;51.476;5.700;2022-07-04T07:29:29;21.50;94.80
58582;DHT22;44361;51.476;5.700;2022-07-04T07:31:55;21.60;93.40
58582;DHT22;44361;51.476;5.700;2022-07-04T07:34:21;21.70;93.90
58582;DHT22;44361;51.476;5.700;2022-07-04T07:36:46;21.80;93.40
58582;DHT22;44361;51.476;5.700;2022-07-04T07:39:12;21.70;91.70
58582;DHT22;44361;51.476;5.700;2022-07-04T07:41:37;21.50;93.60
58582;DHT22;44361;51.476;5.700;2022-07-04T07:44:03;21.60;92.60
58582;DHT22;44361;51.476;5.700;2022-07-04T07:46:29;21.80;92.80
58582;DHT22;44361;51.476;5.700;2022-07-04T07:48:54;21.80;91.60
58582;DHT22;44361;51.476;5.700;2022-07-04T07:51:20;21.60;92.20
58582;DHT22;44361;51.476;5.700;2022-07-04T07:53:45;21.70;93.30
58582;DHT22;44361;51.476;5.700;2022-07-04T07:56:11;21.60;92.90
58582;DHT22;44361;51.476;5.700;2022-07-04T07:58:37;21.70;92.90
58582;DHT22;44361;51.476;5.700;2022-07-04T08:01:02;21.80;93.70
58582;DHT22;44361;51.476;5.700;2022-07-04T08:03:28;21.80;94.10
58582;DHT22;44361;51.476;5.700;2022-07-04T08:06:13;21.90;93.30
58582;DHT22;44361;51.476;5.700;2022-07-04T08:08:40;22.00;92.90
58582;DHT22;44361;51.476;5.700;2022-07-04T08:11:05;22.00;94.20
58582;DHT22;44361;51.476;5.700;2022-07-04T08:13:31;22.10;93.60
58582;DHT22;44361;51.476;5.700;2022-07-04T08:15:57;22.30;93.70
58582;DHT22;44361;51.476;5.700;2022-07-04T08:18:23;22.30;93.30
58582;DHT22;44361;51.476;5.700;2022-07-04T08:20:49;22.40;92.50
58582;DHT22;44361;51.476;5.700;2022-07-04T08:23:16;22.50;93.00
58582;DHT22;44361;51.476;5.700;2022-07-04T08:25:41;22.60;91.80
58582;DHT22;44361;51.476;5.700;2022-07-04T08:28:07;22.60;91.40
58582;DHT22;44361;51.476;5.700;2022-07-04T08:30:33;22.80;91.20
58582;DHT22;44361;51.476;5.700;2022-07-04T08:32:58;22.70;90.50
58582;DHT22;44361;51.476;5.700;2022-07-04T08:35:24;22.40;92.00
58582;DHT22;44361;51.476;5.700;2022-07-04T08:37:50;22.60;92.30
58582;DHT22;44361;51.476;5.700;2022-07-04T08:40:21;22.60;90.40
58582;DHT22;44361;51.476;5.700;2022-07-04T08:42:48;22.90;91.40
58582;DHT22;44361;51.476;5.700;2022-07-04T08:45:16;23.40;90.30
58582;DHT22;44361;51.476;5.700;2022-07-04T08:47:42;23.40;90.00
58582;DHT22;44361;51.476;5.700;2022-07-04T08:50:09;23.30;88.30
58582;DHT22;44361;51.476;5.700;2022-07-04T08:52:36;23.40;88.70
58582;DHT22;44361;51.476;5.700;2022-07-04T08:55:04;23.70;91.10
58582;DHT22;44361;51.476;5.700;2022-07-04T08:57:49;23.70;88.50
58582;DHT22;44361;51.476;5.700;2022-07-04T09:00:35;23.40;87.00
58582;DHT22;44361;51.476;5.700;2022-07-04T09:03:02;23.50;90.10
58582;DHT22;44361;51.476;5.700;2022-07-04T09:05:29;23.90;90.20
58582;DHT22;44361;51.476;5.700;2022-07-04T09:07:55;24.00;84.60
58582;DHT22;44361;51.476;5.700;2022-07-04T09:10:21;23.90;85.80
58582;DHT22;44361;51.476;5.700;2022-07-04T09:12:47;24.00;86.40
58582;DHT22;44361;51.476;5.700;2022-07-04T09:15:14;24.00;84.70
58582;DHT22;44361;51.476;5.700;2022-07-04T09:17:40;23.70;83.40
58582;DHT22;44361;51.476;5.700;2022-07-04T09:22:37;24.10;84.40
58582;DHT22;44361;51.476;5.700;2022-07-04T09:25:04;23.90;81.90
58582;DHT22;44361;51.476;5.700;2022-07-04T09:27:36;23.90;82.30
58582;DHT22;44361;51.476;5.700;2022-07-04T09:30:03;24.00;82.40
58582;DHT22;44361;51.476;5.700;2022-07-04T09:32:41;24.00;81.50
58582;DHT22;44361;51.476;5.700;2022-07-04T09:35:14;23.80;82.40
58582;DHT22;44361;51.476;5.700;2022-07-04T09:37:43;23.90;83.40
58582;DHT22;44361;51.476;5.700;2022-07-04T09:40:20;24.30;84.00
58582;DHT22;44361;51.476;5.700;2022-07-04T09:42:46;24.50;82.60
58582;DHT22;44361;51.476;5.700;2022-07-04T09:45:12;24.70;79.70
58582;DHT22;44361;51.476;5.700;2022-07-04T09:47:39;24.30;77.50
58582;DHT22;44361;51.476;5.700;2022-07-04T09:50:17;24.50;85.20
58582;DHT22;44361;51.476;5.700;2022-07-04T09:52:55;24.70;78.90
58582;DHT22;44361;51.476;5.700;2022-07-04T09:55:37;24.90;77.80
58582;DHT22;44361;51.476;5.700;2022-07-04T09:58:05;25.20;75.80
58582;DHT22;44361;51.476;5.700;2022-07-04T10:03:25;24.50;77.40
58582;DHT22;44361;51.476;5.700;2022-07-04T10:06:10;24.30;73.10
58582;DHT22;44361;51.476;5.700;2022-07-04T10:08:37;23.80;75.70
58582;DHT22;44361;51.476;5.700;2022-07-04T10:11:06;24.30;76.10
58582;DHT22;44361;51.476;5.700;2022-07-04T10:13:32;24.70;74.50
58582;DHT22;44361;51.476;5.700;2022-07-04T10:15:58;25.20;75.80
58582;DHT22;44361;51.476;5.700;2022-07-04T10:18:24;25.10;77.40
58582;DHT22;44361;51.476;5.700;2022-07-04T10:20:51;25.10;77.00
58582;DHT22;44361;51.476;5.700;2022-07-04T10:23:19;25.20;73.00
58582;DHT22;44361;51.476;5.700;2022-07-04T10:25:52;24.90;75.10
58582;DHT22;44361;51.476;5.700;2022-07-04T10:28:19;25.30;74.80
58582;DHT22;44361;51.476;5.700;2022-07-04T10:30:51;25.60;73.80
58582;DHT22;44361;51.476;5.700;2022-07-04T10:33:25;25.80;76.90
58582;DHT22;44361;51.476;5.700;2022-07-04T10:35:53;26.30;72.50
58582;DHT22;44361;51.476;5.700;2022-07-04T10:38:24;26.40;71.70
58582;DHT22;44361;51.476;5.700;2022-07-04T10:40:55;25.80;68.90
58582;DHT22;44361;51.476;5.700;2022-07-04T10:48:35;25.50;69.70
58582;DHT22;44361;51.476;5.700;2022-07-04T10:51:06;24.80;70.60
58582;DHT22;44361;51.476;5.700;2022-07-04T10:53:33;24.20;71.10
58582;DHT22;44361;51.476;5.700;2022-07-04T10:58:44;24.40;72.00
58582;DHT22;44361;51.476;5.700;2022-07-04T11:01:13;23.80;71.80
58582;DHT22;44361;51.476;5.700;2022-07-04T11:03:50;23.40;72.70
58582;DHT22;44361;51.476;5.700;2022-07-04T11:09:18;24.20;74.40
58582;DHT22;44361;51.476;5.700;2022-07-04T11:17:06;24.00;74.80
58582;DHT22;44361;51.476;5.700;2022-07-04T11:19:32;24.40;74.60
58582;DHT22;44361;51.476;5.700;2022-07-04T11:21:58;24.80;73.30
58582;DHT22;44361;51.476;5.700;2022-07-04T11:24:25;25.20;72.50
58582;DHT22;44361;51.476;5.700;2022-07-04T11:26:51;25.50;73.00
58582;DHT22;44361;51.476;5.700;2022-07-04T11:29:17;25.50;71.20
58582;DHT22;44361;51.476;5.700;2022-07-04T11:31:45;25.10;71.50
58582;DHT22;44361;51.476;5.700;2022-07-04T11:34:11;25.00;70.90
58582;DHT22;44361;51.476;5.700;2022-07-04T11:36:39;25.50;69.40
58582;DHT22;44361;51.476;5.700;2022-07-04T11:39:07;25.50;74.40
58582;DHT22;44361;51.476;5.700;2022-07-04T11:41:41;25.70;67.70
58582;DHT22;44361;51.476;5.700;2022-07-04T11:44:30;25.60;65.70
58582;DHT22;44361;51.476;5.700;2022-07-04T11:47:19;25.80;73.70
58582;DHT22;44361;51.476;5.700;2022-07-04T11:52:12;25.70;71.60
58582;DHT22;44361;51.476;5.700;2022-07-04T11:54:45;26.00;65.80
58582;DHT22;44361;51.476;5.700;2022-07-04T11:57:26;26.20;68.90
58582;DHT22;44361;51.476;5.700;2022-07-04T12:02:22;26.60;65.30
58582;DHT22;44361;51.476;5.700;2022-07-04T12:04:48;26.40;64.10
58582;DHT22;44361;51.476;5.700;2022-07-04T12:07:16;25.70;64.90
58582;DHT22;44361;51.476;5.700;2022-07-04T12:09:42;25.70;66.40
58582;DHT22;44361;51.476;5.700;2022-07-04T12:12:09;25.10;68.30
58582;DHT22;44361;51.476;5.700;2022-07-04T12:14:35;24.60;69.00
58582;DHT22;44361;51.476;5.700;2022-07-04T12:17:18;24.30;71.00
58582;DHT22;44361;51.476;5.700;2022-07-04T12:19:58;24.30;69.90
58582;DHT22;44361;51.476;5.700;2022-07-04T12:23:05;24.90;68.60
58582;DHT22;44361;51.476;5.700;2022-07-04T12:25:34;24.90;66.10
58582;DHT22;44361;51.476;5.700;2022-07-04T12:28:11;25.70;64.90
58582;DHT22;44361;51.476;5.700;2022-07-04T12:30:47;26.50;64.60
58582;DHT22;44361;51.476;5.700;2022-07-04T12:33:13;26.80;63.30
58582;DHT22;44361;51.476;5.700;2022-07-04T12:35:52;26.30;64.50
58582;DHT22;44361;51.476;5.700;2022-07-04T12:38:32;25.80;65.40
58582;DHT22;44361;51.476;5.700;2022-07-04T12:41:04;24.80;72.10
58582;DHT22;44361;51.476;5.700;2022-07-04T12:46:32;24.10;77.60
58582;DHT22;44361;51.476;5.700;2022-07-04T12:49:00;23.90;77.10
58582;DHT22;44361;51.476;5.700;2022-07-04T12:51:32;23.80;75.70
58582;DHT22;44361;51.476;5.700;2022-07-04T12:53:59;23.50;77.00
58582;DHT22;44361;51.476;5.700;2022-07-04T12:58:54;24.30;73.40
58582;DHT22;44361;51.476;5.700;2022-07-04T13:01:20;24.50;72.40
58582;DHT22;44361;51.476;5.700;2022-07-04T13:03:46;24.80;73.90
58582;DHT22;44361;51.476;5.700;2022-07-04T13:06:11;24.70;73.80
58582;DHT22;44361;51.476;5.700;2022-07-04T13:08:37;24.50;72.40
58582;DHT22;44361;51.476;5.700;2022-07-04T13:11:02;24.20;71.70
58582;DHT22;44361;51.476;5.700;2022-07-04T13:13:46;24.50;68.60
58582;DHT22;44361;51.476;5.700;2022-07-04T13:16:13;25.00;70.90
58582;DHT22;44361;51.476;5.700;2022-07-04T13:18:38;25.50;70.80
58582;DHT22;44361;51.476;5.700;2022-07-04T13:21:04;25.60;67.90
58582;DHT22;44361;51.476;5.700;2022-07-04T13:23:30;25.20;70.30
58582;DHT22;44361;51.476;5.700;2022-07-04T13:25:56;25.60;71.10
58582;DHT22;44361;51.476;5.700;2022-07-04T13:28:21;25.70;68.70
58582;DHT22;44361;51.476;5.700;2022-07-04T13:30:47;25.40;72.40
58582;DHT22;44361;51.476;5.700;2022-07-04T13:33:12;25.10;67.30
58582;DHT22;44361;51.476;5.700;2022-07-04T13:35:38;24.90;69.50
58582;DHT22;44361;51.476;5.700;2022-07-04T13:38:03;24.70;70.80
58582;DHT22;44361;51.476;5.700;2022-07-04T13:40:29;24.90;70.10
58582;DHT22;44361;51.476;5.700;2022-07-04T13:42:55;24.50;70.60
58582;DHT22;44361;51.476;5.700;2022-07-04T13:45:23;24.10;71.00
58582;DHT22;44361;51.476;5.700;2022-07-04T13:47:50;24.10;71.70
58582;DHT22;44361;51.476;5.700;2022-07-04T13:50:16;24.30;71.40
58582;DHT22;44361;51.476;5.700;2022-07-04T13:52:42;24.30;73.50
58582;DHT22;44361;51.476;5.700;2022-07-04T13:55:08;24.60;72.50
58582;DHT22;44361;51.476;5.700;2022-07-04T13:57:33;25.00;72.20
58582;DHT22;44361;51.476;5.700;2022-07-04T13:59:59;25.20;69.80
58582;DHT22;44361;51.476;5.700;2022-07-04T14:02:25;25.70;68.50
58582;DHT22;44361;51.476;5.700;2022-07-04T14:04:50;26.20;67.50
58582;DHT22;44361;51.476;5.700;2022-07-04T14:07:16;26.70;65.50
58582;DHT22;44361;51.476;5.700;2022-07-04T14:09:41;27.00;65.00
58582;DHT22;44361;51.476;5.700;2022-07-04T14:12:07;27.10;61.30
58582;DHT22;44361;51.476;5.700;2022-07-04T14:14:33;27.20;61.30
58582;DHT22;44361;51.476;5.700;2022-07-04T14:16:59;27.30;63.10
58582;DHT22;44361;51.476;5.700;2022-07-04T14:19:25;27.40;66.30
58582;DHT22;44361;51.476;5.700;2022-07-04T14:21:51;26.50;65.40
58582;DHT22;44361;51.476;5.700;2022-07-04T14:24:17;26.30;68.00
58582;DHT22;44361;51.476;5.700;2022-07-04T14:26:42;26.40;66.70
58582;DHT22;44361;51.476;5.700;2022-07-04T14:29:08;26.40;66.80
58582;DHT22;44361;51.476;5.700;2022-07-04T14:31:34;26.40;68.70
58582;DHT22;44361;51.476;5.700;2022-07-04T14:33:59;26.40;68.40
58582;DHT22;44361;51.476;5.700;2022-07-04T14:36:25;26.90;68.40
58582;DHT22;44361;51.476;5.700;2022-07-04T14:38:51;26.80;66.30
58582;DHT22;44361;51.476;5.700;2022-07-04T14:41:16;26.90;63.00
58582;DHT22;44361;51.476;5.700;2022-07-04T14:43:43;26.70;63.90
58582;DHT22;44361;51.476;5.700;2022-07-04T14:46:09;26.10;65.40
58582;DHT22;44361;51.476;5.700;2022-07-04T14:48:41;25.50;67.20
58582;DHT22;44361;51.476;5.700;2022-07-04T14:51:07;25.40;68.20
58582;DHT22;44361;51.476;5.700;2022-07-04T14:53:32;25.40;69.00
58582;DHT22;44361;51.476;5.700;2022-07-04T14:55:58;26.00;70.30
58582;DHT22;44361;51.476;5.700;2022-07-04T14:58:23;26.00;66.80
58582;DHT22;44361;51.476;5.700;2022-07-04T15:00:49;26.60;69.00
58582;DHT22;44361;51.476;5.700;2022-07-04T15:03:14;27.00;63.60
58582;DHT22;44361;51.476;5.700;2022-07-04T15:05:41;26.90;62.10
58582;DHT22;44361;51.476;5.700;2022-07-04T15:08:07;26.10;64.90
58582;DHT22;44361;51.476;5.700;2022-07-04T15:10:33;25.70;65.30
58582;DHT22;44361;51.476;5.700;2022-07-04T15:12:58;26.20;68.50
58582;DHT22;44361;51.476;5.700;2022-07-04T15:15:24;26.90;63.30
58582;DHT22;44361;51.476;5.700;2022-07-04T15:17:49;27.80;63.20
58582;DHT22;44361;51.476;5.700;2022-07-04T15:20:15;27.80;64.30
58582;DHT22;44361;51.476;5.700;2022-07-04T15:22:59;27.60;63.60
58582;DHT22;44361;51.476;5.700;2022-07-04T15:25:43;28.10;62.10
58582;DHT22;44361;51.476;5.700;2022-07-04T15:28:09;28.10;60.30
58582;DHT22;44361;51.476;5.700;2022-07-04T15:30:34;28.30;61.50
58582;DHT22;44361;51.476;5.700;2022-07-04T15:33:00;27.50;61.10
58582;DHT22;44361;51.476;5.700;2022-07-04T17:19:58;26.90;64.40
58582;DHT22;44361;51.476;5.700;2022-07-04T17:22:23;26.80;63.50
58582;DHT22;44361;51.476;5.700;2022-07-04T17:24:50;26.00;66.30
58582;DHT22;44361;51.476;5.700;2022-07-04T17:27:15;25.30;68.30
58582;DHT22;44361;51.476;5.700;2022-07-04T17:29:42;25.50;68.60
58582;DHT22;44361;51.476;5.700;2022-07-04T17:32:07;26.10;68.20
58582;DHT22;44361;51.476;5.700;2022-07-04T17:34:34;26.30;67.40
58582;DHT22;44361;51.476;5.700;2022-07-04T17:36:59;25.60;68.30
58582;DHT22;44361;51.476;5.700;2022-07-04T17:39:25;24.80;71.20
58582;DHT22;44361;51.476;5.700;2022-07-04T17:41:51;24.10;73.70
58582;DHT22;44361;51.476;5.700;2022-07-04T17:44:18;23.70;74.10
58582;DHT22;44361;51.476;5.700;2022-07-04T17:46:47;23.40;74.70